sensor_id;sensor_type;location;lat;lon;timestamp;P1;durP1;ratioP1;P2;durP2;ratioP2
14007;SDS011;61651;45.508;12.232;2023-02-11T00:00:23;38.67;;;27.70;;
14007;SDS011;61651;45.508;12.232;2023-02-11T00:03:25;49.63;;;31.87;;
14007;SDS011;61651;45.508;12.232;2023-02-11T00:06:29;44.33;;;28.70;;
14007;SDS011;61651;45.508;12.232;2023-02-11T00:09:32;46.87;;;29.30;;
14007;SDS011;61651;45.508;12.232;2023-02-11T00:12:34;41.13;;;28.17;;
14007;SDS011;61651;45.508;12.232;2023-02-11T00:15:37;47.73;;;30.63;;
14007;SDS011;61651;45.508;12.232;2023-02-11T00:18:39;42.80;;;29.60;;
14007;SDS011;61651;45.508;12.232;2023-02-11T00:21:42;42.73;;;29.00;;
14007;SDS011;61651;45.508;12.232;2023-02-11T00:24:44;45.57;;;28.87;;
14007;SDS011;61651;45.508;12.232;2023-02-11T00:27:46;45.20;;;31.40;;
14007;SDS011;61651;45.508;12.232;2023-02-11T00:30:52;46.97;;;30.90;;
14007;SDS011;61651;45.508;12.232;2023-02-11T00:33:55;37.77;;;28.97;;
14007;SDS011;61651;45.508;12.232;2023-02-11T00:36:58;42.10;;;27.00;;
14007;SDS011;61651;45.508;12.232;2023-02-11T00:40:00;37.00;;;25.80;;
14007;SDS011;61651;45.508;12.232;2023-02-11T00:43:03;45.47;;;29.07;;
14007;SDS011;61651;45.508;12.232;2023-02-11T00:46:05;42.83;;;29.00;;
14007;SDS011;61651;45.508;12.232;2023-02-11T00:49:07;42.80;;;29.37;;
14007;SDS011;61651;45.508;12.232;2023-02-11T00:52:10;43.43;;;29.73;;
14007;SDS011;61651;45.508;12.232;2023-02-11T00:55:12;46.60;;;29.97;;
14007;SDS011;61651;45.508;12.232;2023-02-11T00:58:15;39.53;;;26.90;;
14007;SDS011;61651;45.508;12.232;2023-02-11T01:01:17;39.77;;;27.60;;
14007;SDS011;61651;45.508;12.232;2023-02-11T01:08:00;39.80;;;28.50;;
14007;SDS011;61651;45.508;12.232;2023-02-11T01:11:03;40.20;;;28.43;;
14007;SDS011;61651;45.508;12.232;2023-02-11T01:14:07;41.37;;;26.67;;
14007;SDS011;61651;45.508;12.232;2023-02-11T01:17:09;44.20;;;29.30;;
14007;SDS011;61651;45.508;12.232;2023-02-11T01:20:13;38.47;;;27.27;;
14007;SDS011;61651;45.508;12.232;2023-02-11T01:23:18;44.27;;;28.00;;
14007;SDS011;61651;45.508;12.232;2023-02-11T01:26:20;39.37;;;27.27;;
14007;SDS011;61651;45.508;12.232;2023-02-11T01:29:23;42.80;;;26.97;;
14007;SDS011;61651;45.508;12.232;2023-02-11T01:32:25;40.57;;;25.80;;
14007;SDS011;61651;45.508;12.232;2023-02-11T01:35:27;41.60;;;27.90;;
14007;SDS011;61651;45.508;12.232;2023-02-11T01:38:30;41.97;;;27.63;;
14007;SDS011;61651;45.508;12.232;2023-02-11T01:41:33;46.07;;;29.13;;
14007;SDS011;61651;45.508;12.232;2023-02-11T01:44:36;41.67;;;28.33;;
14007;SDS011;61651;45.508;12.232;2023-02-11T01:47:39;41.60;;;28.03;;
14007;SDS011;61651;45.508;12.232;2023-02-11T01:50:41;40.00;;;26.70;;
14007;SDS011;61651;45.508;12.232;2023-02-11T01:53:47;45.27;;;28.47;;
14007;SDS011;61651;45.508;12.232;2023-02-11T01:57:09;39.53;;;27.23;;
14007;SDS011;61651;45.508;12.232;2023-02-11T02:00:24;42.37;;;27.93;;
14007;SDS011;61651;45.508;12.232;2023-02-11T02:03:28;39.80;;;27.63;;
14007;SDS011;61651;45.508;12.232;2023-02-11T02:06:34;39.80;;;27.77;;
14007;SDS011;61651;45.508;12.232;2023-02-11T02:09:47;42.23;;;30.07;;
14007;SDS011;61651;45.508;12.232;2023-02-11T02:12:54;39.50;;;27.83;;
14007;SDS011;61651;45.508;12.232;2023-02-11T02:15:56;37.43;;;28.17;;
14007;SDS011;61651;45.508;12.232;2023-02-11T02:19:05;40.17;;;26.63;;
14007;SDS011;61651;45.508;12.232;2023-02-11T02:29:54;37.30;;;26.73;;
14007;SDS011;61651;45.508;12.232;2023-02-11T02:33:15;42.67;;;28.17;;
14007;SDS011;61651;45.508;12.232;2023-02-11T02:36:33;40.07;;;26.73;;
14007;SDS011;61651;45.508;12.232;2023-02-11T02:39:39;37.67;;;24.47;;
14007;SDS011;61651;45.508;12.232;2023-02-11T02:42:41;40.97;;;25.30;;
14007;SDS011;61651;45.508;12.232;2023-02-11T02:45:44;41.20;;;28.87;;
14007;SDS011;61651;45.508;12.232;2023-02-11T02:48:48;39.63;;;27.27;;
14007;SDS011;61651;45.508;12.232;2023-02-11T02:52:03;38.60;;;25.17;;
14007;SDS011;61651;45.508;12.232;2023-02-11T02:58:48;37.37;;;26.67;;
14007;SDS011;61651;45.508;12.232;2023-02-11T03:01:56;32.97;;;24.23;;
14007;SDS011;61651;45.508;12.232;2023-02-11T03:05:09;33.83;;;24.30;;
14007;SDS011;61651;45.508;12.232;2023-02-11T03:08:19;39.80;;;25.30;;
14007;SDS011;61651;45.508;12.232;2023-02-11T03:11:27;38.53;;;27.00;;
14007;SDS011;61651;45.508;12.232;2023-02-11T03:14:29;33.77;;;24.60;;
14007;SDS011;61651;45.508;12.232;2023-02-11T03:17:33;34.33;;;24.33;;
14007;SDS011;61651;45.508;12.232;2023-02-11T03:20:41;37.80;;;24.30;;
14007;SDS011;61651;45.508;12.232;2023-02-11T03:23:48;30.87;;;23.23;;
14007;SDS011;61651;45.508;12.232;2023-02-11T03:26:53;32.00;;;24.10;;
14007;SDS011;61651;45.508;12.232;2023-02-11T03:30:00;35.70;;;25.37;;
14007;SDS011;61651;45.508;12.232;2023-02-11T03:33:07;32.10;;;23.87;;
14007;SDS011;61651;45.508;12.232;2023-02-11T03:36:16;35.97;;;25.13;;
14007;SDS011;61651;45.508;12.232;2023-02-11T03:39:22;32.77;;;25.50;;
14007;SDS011;61651;45.508;12.232;2023-02-11T03:42:29;33.47;;;22.57;;
14007;SDS011;61651;45.508;12.232;2023-02-11T03:45:34;37.07;;;24.00;;
14007;SDS011;61651;45.508;12.232;2023-02-11T03:48:39;32.97;;;24.10;;
14007;SDS011;61651;45.508;12.232;2023-02-11T03:51:45;39.53;;;27.50;;
14007;SDS011;61651;45.508;12.232;2023-02-11T03:54:50;43.97;;;28.77;;
14007;SDS011;61651;45.508;12.232;2023-02-11T03:57:56;42.90;;;28.27;;
14007;SDS011;61651;45.508;12.232;2023-02-11T04:00:58;40.93;;;26.53;;
14007;SDS011;61651;45.508;12.232;2023-02-11T04:04:01;35.63;;;26.93;;
14007;SDS011;61651;45.508;12.232;2023-02-11T04:07:04;43.03;;;27.33;;
14007;SDS011;61651;45.508;12.232;2023-02-11T04:10:07;40.27;;;27.57;;
14007;SDS011;61651;45.508;12.232;2023-02-11T04:13:09;36.83;;;26.83;;
14007;SDS011;61651;45.508;12.232;2023-02-11T04:16:11;44.37;;;28.07;;
14007;SDS011;61651;45.508;12.232;2023-02-11T04:19:13;43.33;;;26.97;;
14007;SDS011;61651;45.508;12.232;2023-02-11T04:22:16;35.50;;;26.50;;
14007;SDS011;61651;45.508;12.232;2023-02-11T04:25:18;39.20;;;27.57;;
14007;SDS011;61651;45.508;12.232;2023-02-11T04:28:20;42.27;;;26.87;;
14007;SDS011;61651;45.508;12.232;2023-02-11T04:31:22;40.70;;;28.20;;
14007;SDS011;61651;45.508;12.232;2023-02-11T04:34:24;38.83;;;25.87;;
14007;SDS011;61651;45.508;12.232;2023-02-11T04:37:28;37.47;;;28.40;;
14007;SDS011;61651;45.508;12.232;2023-02-11T04:40:30;40.47;;;27.33;;
14007;SDS011;61651;45.508;12.232;2023-02-11T04:43:32;40.43;;;28.13;;
14007;SDS011;61651;45.508;12.232;2023-02-11T04:46:34;40.33;;;26.03;;
14007;SDS011;61651;45.508;12.232;2023-02-11T04:49:36;37.60;;;27.80;;
14007;SDS011;61651;45.508;12.232;2023-02-11T04:52:39;44.63;;;27.97;;
14007;SDS011;61651;45.508;12.232;2023-02-11T04:55:41;40.80;;;28.70;;
14007;SDS011;61651;45.508;12.232;2023-02-11T04:58:44;38.03;;;26.13;;
14007;SDS011;61651;45.508;12.232;2023-02-11T05:01:46;35.50;;;25.27;;
14007;SDS011;61651;45.508;12.232;2023-02-11T05:04:48;37.87;;;27.57;;
14007;SDS011;61651;45.508;12.232;2023-02-11T05:07:51;39.23;;;25.77;;
14007;SDS011;61651;45.508;12.232;2023-02-11T05:10:53;38.93;;;25.67;;
14007;SDS011;61651;45.508;12.232;2023-02-11T05:13:56;35.67;;;25.27;;
14007;SDS011;61651;45.508;12.232;2023-02-11T05:16:58;35.13;;;25.90;;
14007;SDS011;61651;45.508;12.232;2023-02-11T05:20:00;44.20;;;27.57;;
14007;SDS011;61651;45.508;12.232;2023-02-11T05:23:03;37.40;;;26.20;;
14007;SDS011;61651;45.508;12.232;2023-02-11T05:26:05;34.07;;;26.60;;
14007;SDS011;61651;45.508;12.232;2023-02-11T05:29:08;36.63;;;25.00;;
14007;SDS011;61651;45.508;12.232;2023-02-11T05:32:10;35.73;;;25.87;;
14007;SDS011;61651;45.508;12.232;2023-02-11T05:35:12;41.27;;;26.50;;
14007;SDS011;61651;45.508;12.232;2023-02-11T05:38:15;39.37;;;26.73;;
14007;SDS011;61651;45.508;12.232;2023-02-11T05:41:18;38.10;;;27.80;;
14007;SDS011;61651;45.508;12.232;2023-02-11T05:44:20;40.87;;;26.30;;
14007;SDS011;61651;45.508;12.232;2023-02-11T05:47:22;40.63;;;28.10;;
14007;SDS011;61651;45.508;12.232;2023-02-11T05:50:24;38.93;;;25.17;;
14007;SDS011;61651;45.508;12.232;2023-02-11T05:53:28;40.57;;;26.43;;
14007;SDS011;61651;45.508;12.232;2023-02-11T05:56:30;43.00;;;25.20;;
14007;SDS011;61651;45.508;12.232;2023-02-11T05:59:32;35.00;;;23.90;;
14007;SDS011;61651;45.508;12.232;2023-02-11T06:02:34;37.90;;;24.30;;
14007;SDS011;61651;45.508;12.232;2023-02-11T06:05:36;39.70;;;26.90;;
14007;SDS011;61651;45.508;12.232;2023-02-11T06:08:39;34.73;;;24.93;;
14007;SDS011;61651;45.508;12.232;2023-02-11T06:11:42;34.17;;;24.13;;
14007;SDS011;61651;45.508;12.232;2023-02-11T06:14:44;33.50;;;25.00;;
14007;SDS011;61651;45.508;12.232;2023-02-11T06:17:46;32.93;;;25.10;;
14007;SDS011;61651;45.508;12.232;2023-02-11T06:20:48;32.70;;;24.57;;
14007;SDS011;61651;45.508;12.232;2023-02-11T06:27:14;37.20;;;24.83;;
14007;SDS011;61651;45.508;12.232;2023-02-11T06:30:17;40.77;;;26.50;;
14007;SDS011;61651;45.508;12.232;2023-02-11T06:33:19;36.47;;;25.80;;
14007;SDS011;61651;45.508;12.232;2023-02-11T06:36:21;33.23;;;24.47;;
14007;SDS011;61651;45.508;12.232;2023-02-11T06:39:24;35.87;;;26.60;;
14007;SDS011;61651;45.508;12.232;2023-02-11T06:42:26;36.73;;;27.43;;
14007;SDS011;61651;45.508;12.232;2023-02-11T06:45:28;37.30;;;27.10;;
14007;SDS011;61651;45.508;12.232;2023-02-11T06:48:30;41.40;;;27.27;;
14007;SDS011;61651;45.508;12.232;2023-02-11T06:51:32;43.00;;;25.60;;
14007;SDS011;61651;45.508;12.232;2023-02-11T06:54:36;32.13;;;24.07;;
14007;SDS011;61651;45.508;12.232;2023-02-11T06:57:38;35.60;;;24.47;;
14007;SDS011;61651;45.508;12.232;2023-02-11T07:00:40;36.20;;;24.97;;
14007;SDS011;61651;45.508;12.232;2023-02-11T07:03:43;37.40;;;24.17;;
14007;SDS011;61651;45.508;12.232;2023-02-11T07:06:45;30.23;;;23.67;;
14007;SDS011;61651;45.508;12.232;2023-02-11T07:09:49;31.23;;;22.73;;
14007;SDS011;61651;45.508;12.232;2023-02-11T07:12:51;36.60;;;23.57;;
14007;SDS011;61651;45.508;12.232;2023-02-11T07:15:53;41.23;;;26.27;;
14007;SDS011;61651;45.508;12.232;2023-02-11T07:18:55;36.60;;;25.17;;
14007;SDS011;61651;45.508;12.232;2023-02-11T07:21:56;34.27;;;24.63;;
14007;SDS011;61651;45.508;12.232;2023-02-11T07:25:00;34.67;;;22.97;;
14007;SDS011;61651;45.508;12.232;2023-02-11T07:28:03;37.70;;;24.73;;
14007;SDS011;61651;45.508;12.232;2023-02-11T07:31:06;34.53;;;23.70;;
14007;SDS011;61651;45.508;12.232;2023-02-11T07:34:08;30.47;;;23.13;;
14007;SDS011;61651;45.508;12.232;2023-02-11T07:37:11;33.63;;;24.10;;
14007;SDS011;61651;45.508;12.232;2023-02-11T07:40:14;38.63;;;24.10;;
14007;SDS011;61651;45.508;12.232;2023-02-11T07:43:16;43.23;;;24.27;;
14007;SDS011;61651;45.508;12.232;2023-02-11T07:46:19;30.43;;;22.83;;
14007;SDS011;61651;45.508;12.232;2023-02-11T07:49:23;32.70;;;23.67;;
14007;SDS011;61651;45.508;12.232;2023-02-11T07:52:28;31.93;;;22.50;;
14007;SDS011;61651;45.508;12.232;2023-02-11T07:55:31;35.07;;;23.20;;
14007;SDS011;61651;45.508;12.232;2023-02-11T07:58:33;30.63;;;22.40;;
14007;SDS011;61651;45.508;12.232;2023-02-11T08:01:36;35.47;;;21.27;;
14007;SDS011;61651;45.508;12.232;2023-02-11T08:04:38;32.53;;;21.23;;
14007;SDS011;61651;45.508;12.232;2023-02-11T08:07:40;29.10;;;21.13;;
14007;SDS011;61651;45.508;12.232;2023-02-11T08:10:43;33.87;;;20.97;;
14007;SDS011;61651;45.508;12.232;2023-02-11T08:13:45;31.07;;;22.10;;
14007;SDS011;61651;45.508;12.232;2023-02-11T08:16:47;28.87;;;20.10;;
14007;SDS011;61651;45.508;12.232;2023-02-11T08:19:49;29.27;;;20.80;;
14007;SDS011;61651;45.508;12.232;2023-02-11T08:22:51;27.40;;;20.90;;
14007;SDS011;61651;45.508;12.232;2023-02-11T08:25:54;27.80;;;19.17;;
14007;SDS011;61651;45.508;12.232;2023-02-11T08:29:01;24.67;;;18.00;;
14007;SDS011;61651;45.508;12.232;2023-02-11T08:32:07;25.13;;;18.10;;
14007;SDS011;61651;45.508;12.232;2023-02-11T08:35:09;26.83;;;18.50;;
14007;SDS011;61651;45.508;12.232;2023-02-11T08:38:12;26.40;;;19.10;;
14007;SDS011;61651;45.508;12.232;2023-02-11T08:41:16;30.97;;;19.57;;
14007;SDS011;61651;45.508;12.232;2023-02-11T08:44:18;26.73;;;19.90;;
14007;SDS011;61651;45.508;12.232;2023-02-11T08:47:21;25.37;;;18.20;;
14007;SDS011;61651;45.508;12.232;2023-02-11T08:50:23;24.80;;;19.23;;
14007;SDS011;61651;45.508;12.232;2023-02-11T08:53:28;26.73;;;17.23;;
14007;SDS011;61651;45.508;12.232;2023-02-11T08:56:31;24.90;;;18.53;;
14007;SDS011;61651;45.508;12.232;2023-02-11T08:59:33;23.17;;;16.80;;
14007;SDS011;61651;45.508;12.232;2023-02-11T09:02:36;19.20;;;15.30;;
14007;SDS011;61651;45.508;12.232;2023-02-11T09:05:56;19.83;;;14.83;;
14007;SDS011;61651;45.508;12.232;2023-02-11T09:08:58;19.33;;;13.43;;
14007;SDS011;61651;45.508;12.232;2023-02-11T09:12:02;22.67;;;15.40;;
14007;SDS011;61651;45.508;12.232;2023-02-11T09:15:05;17.37;;;13.17;;
14007;SDS011;61651;45.508;12.232;2023-02-11T09:18:07;19.43;;;15.10;;
14007;SDS011;61651;45.508;12.232;2023-02-11T09:21:09;18.03;;;14.80;;
14007;SDS011;61651;45.508;12.232;2023-02-11T09:24:12;14.87;;;12.33;;
14007;SDS011;61651;45.508;12.232;2023-02-11T09:27:15;17.43;;;12.33;;
14007;SDS011;61651;45.508;12.232;2023-02-11T09:30:17;16.00;;;11.33;;
14007;SDS011;61651;45.508;12.232;2023-02-11T09:33:20;19.67;;;13.60;;
14007;SDS011;61651;45.508;12.232;2023-02-11T09:36:22;16.63;;;12.60;;
14007;SDS011;61651;45.508;12.232;2023-02-11T09:39:26;16.23;;;12.17;;
14007;SDS011;61651;45.508;12.232;2023-02-11T09:42:36;18.48;;;15.07;;
14007;SDS011;61651;45.508;12.232;2023-02-11T09:45:44;17.43;;;14.47;;
14007;SDS011;61651;45.508;12.232;2023-02-11T09:48:46;21.40;;;13.70;;
14007;SDS011;61651;45.508;12.232;2023-02-11T09:52:10;16.40;;;12.50;;
14007;SDS011;61651;45.508;12.232;2023-02-11T09:55:20;17.30;;;13.23;;
14007;SDS011;61651;45.508;12.232;2023-02-11T09:58:27;20.60;;;15.33;;
14007;SDS011;61651;45.508;12.232;2023-02-11T10:01:33;20.33;;;16.27;;
14007;SDS011;61651;45.508;12.232;2023-02-11T10:04:43;20.77;;;15.63;;
14007;SDS011;61651;45.508;12.232;2023-02-11T10:08:14;21.10;;;14.43;;
14007;SDS011;61651;45.508;12.232;2023-02-11T10:11:21;19.13;;;15.07;;
14007;SDS011;61651;45.508;12.232;2023-02-11T10:14:40;18.37;;;14.60;;
14007;SDS011;61651;45.508;12.232;2023-02-11T10:18:04;18.97;;;14.03;;
14007;SDS011;61651;45.508;12.232;2023-02-11T10:21:16;14.57;;;12.00;;
14007;SDS011;61651;45.508;12.232;2023-02-11T10:24:24;16.97;;;10.93;;
14007;SDS011;61651;45.508;12.232;2023-02-11T10:27:30;14.80;;;10.87;;
14007;SDS011;61651;45.508;12.232;2023-02-11T10:30:35;17.33;;;11.53;;
14007;SDS011;61651;45.508;12.232;2023-02-11T10:33:42;17.13;;;10.43;;
14007;SDS011;61651;45.508;12.232;2023-02-11T10:36:47;13.27;;;11.03;;
14007;SDS011;61651;45.508;12.232;2023-02-11T10:39:49;16.87;;;11.77;;
14007;SDS011;61651;45.508;12.232;2023-02-11T10:42:52;19.33;;;11.37;;
14007;SDS011;61651;45.508;12.232;2023-02-11T10:45:57;16.23;;;11.60;;
14007;SDS011;61651;45.508;12.232;2023-02-11T10:49:00;16.37;;;12.43;;
14007;SDS011;61651;45.508;12.232;2023-02-11T10:52:18;16.30;;;12.07;;
14007;SDS011;61651;45.508;12.232;2023-02-11T10:55:23;19.93;;;12.43;;
14007;SDS011;61651;45.508;12.232;2023-02-11T10:58:30;16.83;;;11.77;;
14007;SDS011;61651;45.508;12.232;2023-02-11T11:01:40;13.83;;;10.70;;
14007;SDS011;61651;45.508;12.232;2023-02-11T11:04:44;16.10;;;12.77;;
14007;SDS011;61651;45.508;12.232;2023-02-11T11:07:50;13.70;;;11.73;;
14007;SDS011;61651;45.508;12.232;2023-02-11T11:11:00;14.67;;;10.90;;
14007;SDS011;61651;45.508;12.232;2023-02-11T11:14:04;15.17;;;11.43;;
14007;SDS011;61651;45.508;12.232;2023-02-11T11:17:19;17.20;;;11.70;;
14007;SDS011;61651;45.508;12.232;2023-02-11T11:20:22;15.90;;;12.93;;
14007;SDS011;61651;45.508;12.232;2023-02-11T11:23:27;17.53;;;12.97;;
14007;SDS011;61651;45.508;12.232;2023-02-11T11:26:38;17.30;;;11.87;;
14007;SDS011;61651;45.508;12.232;2023-02-11T11:29:43;15.70;;;11.57;;
14007;SDS011;61651;45.508;12.232;2023-02-11T11:32:49;14.80;;;11.73;;
14007;SDS011;61651;45.508;12.232;2023-02-11T11:35:58;16.10;;;12.57;;
14007;SDS011;61651;45.508;12.232;2023-02-11T11:39:14;16.30;;;12.13;;
14007;SDS011;61651;45.508;12.232;2023-02-11T11:42:24;14.53;;;11.30;;
14007;SDS011;61651;45.508;12.232;2023-02-11T11:45:27;17.23;;;11.90;;
14007;SDS011;61651;45.508;12.232;2023-02-11T11:48:31;16.27;;;11.20;;
14007;SDS011;61651;45.508;12.232;2023-02-11T11:51:38;14.57;;;11.80;;
14007;SDS011;61651;45.508;12.232;2023-02-11T11:54:45;14.67;;;11.23;;
14007;SDS011;61651;45.508;12.232;2023-02-11T11:57:52;16.30;;;12.57;;
14007;SDS011;61651;45.508;12.232;2023-02-11T12:00:55;13.23;;;11.00;;
14007;SDS011;61651;45.508;12.232;2023-02-11T12:07:38;13.23;;;10.37;;
14007;SDS011;61651;45.508;12.232;2023-02-11T12:11:02;14.63;;;11.10;;
14007;SDS011;61651;45.508;12.232;2023-02-11T12:14:13;15.97;;;11.33;;
14007;SDS011;61651;45.508;12.232;2023-02-11T12:17:28;16.90;;;11.30;;
14007;SDS011;61651;45.508;12.232;2023-02-11T12:20:46;16.70;;;10.90;;
14007;SDS011;61651;45.508;12.232;2023-02-11T12:24:06;15.13;;;11.37;;
14007;SDS011;61651;45.508;12.232;2023-02-11T12:27:22;14.70;;;11.57;;
14007;SDS011;61651;45.508;12.232;2023-02-11T12:30:40;13.53;;;10.07;;
14007;SDS011;61651;45.508;12.232;2023-02-11T12:34:04;12.10;;;10.20;;
14007;SDS011;61651;45.508;12.232;2023-02-11T12:37:24;15.23;;;9.53;;
14007;SDS011;61651;45.508;12.232;2023-02-11T12:40:33;10.43;;;9.20;;
14007;SDS011;61651;45.508;12.232;2023-02-11T12:43:41;14.77;;;11.35;;
14007;SDS011;61651;45.508;12.232;2023-02-11T12:46:44;15.33;;;11.63;;
14007;SDS011;61651;45.508;12.232;2023-02-11T12:49:56;15.73;;;11.43;;
14007;SDS011;61651;45.508;12.232;2023-02-11T12:53:24;16.40;;;11.40;;
14007;SDS011;61651;45.508;12.232;2023-02-11T12:56:47;13.50;;;10.03;;
14007;SDS011;61651;45.508;12.232;2023-02-11T12:59:54;13.07;;;9.93;;
14007;SDS011;61651;45.508;12.232;2023-02-11T13:03:01;12.97;;;10.10;;
14007;SDS011;61651;45.508;12.232;2023-02-11T13:06:08;11.53;;;10.07;;
14007;SDS011;61651;45.508;12.232;2023-02-11T13:09:15;15.40;;;12.60;;
14007;SDS011;61651;45.508;12.232;2023-02-11T13:12:21;13.60;;;10.83;;
14007;SDS011;61651;45.508;12.232;2023-02-11T13:15:41;16.60;;;11.57;;
14007;SDS011;61651;45.508;12.232;2023-02-11T13:18:48;16.33;;;10.67;;
14007;SDS011;61651;45.508;12.232;2023-02-11T13:22:04;12.27;;;10.50;;
14007;SDS011;61651;45.508;12.232;2023-02-11T13:25:17;12.53;;;10.50;;
14007;SDS011;61651;45.508;12.232;2023-02-11T13:28:31;15.07;;;10.80;;
14007;SDS011;61651;45.508;12.232;2023-02-11T13:31:41;14.70;;;11.37;;
14007;SDS011;61651;45.508;12.232;2023-02-11T13:34:57;14.70;;;11.87;;
14007;SDS011;61651;45.508;12.232;2023-02-11T13:38:00;18.33;;;12.10;;
14007;SDS011;61651;45.508;12.232;2023-02-11T13:41:14;12.90;;;11.40;;
14007;SDS011;61651;45.508;12.232;2023-02-11T13:44:22;13.37;;;10.63;;
14007;SDS011;61651;45.508;12.232;2023-02-11T13:47:28;14.93;;;10.90;;
14007;SDS011;61651;45.508;12.232;2023-02-11T13:50:35;12.67;;;9.87;;
14007;SDS011;61651;45.508;12.232;2023-02-11T13:53:43;12.67;;;10.73;;
14007;SDS011;61651;45.508;12.232;2023-02-11T13:57:13;13.20;;;11.53;;
14007;SDS011;61651;45.508;12.232;2023-02-11T14:04:04;14.33;;;11.23;;
14007;SDS011;61651;45.508;12.232;2023-02-11T14:07:36;15.23;;;11.27;;
14007;SDS011;61651;45.508;12.232;2023-02-11T14:10:56;15.80;;;11.87;;
14007;SDS011;61651;45.508;12.232;2023-02-11T14:14:02;14.10;;;11.67;;
14007;SDS011;61651;45.508;12.232;2023-02-11T14:17:25;14.97;;;12.30;;
14007;SDS011;61651;45.508;12.232;2023-02-11T14:20:37;16.40;;;12.90;;
14007;SDS011;61651;45.508;12.232;2023-02-11T14:23:43;16.57;;;12.77;;
14007;SDS011;61651;45.508;12.232;2023-02-11T14:26:47;14.33;;;12.43;;
14007;SDS011;61651;45.508;12.232;2023-02-11T14:30:12;16.23;;;12.60;;
14007;SDS011;61651;45.508;12.232;2023-02-11T14:33:57;14.40;;;12.43;;
14007;SDS011;61651;45.508;12.232;2023-02-11T14:37:10;14.57;;;11.87;;
14007;SDS011;61651;45.508;12.232;2023-02-11T14:40:24;18.57;;;12.90;;
14007;SDS011;61651;45.508;12.232;2023-02-11T14:43:33;14.87;;;12.70;;
14007;SDS011;61651;45.508;12.232;2023-02-11T14:46:42;15.40;;;12.83;;
14007;SDS011;61651;45.508;12.232;2023-02-11T14:49:45;15.75;;;13.73;;
14007;SDS011;61651;45.508;12.232;2023-02-11T14:52:48;18.27;;;13.87;;
14007;SDS011;61651;45.508;12.232;2023-02-11T14:55:51;15.53;;;13.73;;
14007;SDS011;61651;45.508;12.232;2023-02-11T14:58:55;16.80;;;12.97;;
14007;SDS011;61651;45.508;12.232;2023-02-11T15:02:00;17.63;;;12.83;;
14007;SDS011;61651;45.508;12.232;2023-02-11T15:05:16;15.37;;;13.00;;
14007;SDS011;61651;45.508;12.232;2023-02-11T15:08:20;16.87;;;13.23;;
14007;SDS011;61651;45.508;12.232;2023-02-11T15:11:23;17.67;;;13.90;;
14007;SDS011;61651;45.508;12.232;2023-02-11T15:14:26;19.90;;;14.57;;
14007;SDS011;61651;45.508;12.232;2023-02-11T15:17:31;18.67;;;14.73;;
14007;SDS011;61651;45.508;12.232;2023-02-11T15:20:33;19.10;;;16.37;;
14007;SDS011;61651;45.508;12.232;2023-02-11T15:23:36;21.53;;;15.23;;
14007;SDS011;61651;45.508;12.232;2023-02-11T15:26:40;20.30;;;16.63;;
14007;SDS011;61651;45.508;12.232;2023-02-11T15:29:42;19.30;;;15.17;;
14007;SDS011;61651;45.508;12.232;2023-02-11T15:32:49;21.17;;;15.90;;
14007;SDS011;61651;45.508;12.232;2023-02-11T15:35:57;21.50;;;15.77;;
14007;SDS011;61651;45.508;12.232;2023-02-11T15:39:26;23.10;;;16.60;;
14007;SDS011;61651;45.508;12.232;2023-02-11T15:42:31;21.63;;;16.27;;
14007;SDS011;61651;45.508;12.232;2023-02-11T15:45:33;22.57;;;17.17;;
14007;SDS011;61651;45.508;12.232;2023-02-11T15:48:41;22.07;;;16.93;;
14007;SDS011;61651;45.508;12.232;2023-02-11T15:51:45;23.33;;;17.50;;
14007;SDS011;61651;45.508;12.232;2023-02-11T15:54:48;22.13;;;17.13;;
14007;SDS011;61651;45.508;12.232;2023-02-11T15:57:52;21.40;;;17.63;;
14007;SDS011;61651;45.508;12.232;2023-02-11T16:00:56;24.70;;;17.00;;
14007;SDS011;61651;45.508;12.232;2023-02-11T16:04:00;24.70;;;18.40;;
14007;SDS011;61651;45.508;12.232;2023-02-11T16:07:04;21.73;;;18.10;;
14007;SDS011;61651;45.508;12.232;2023-02-11T16:10:19;26.63;;;19.60;;
14007;SDS011;61651;45.508;12.232;2023-02-11T16:13:23;25.60;;;19.70;;
14007;SDS011;61651;45.508;12.232;2023-02-11T16:16:27;28.60;;;20.50;;
14007;SDS011;61651;45.508;12.232;2023-02-11T16:19:40;24.97;;;19.77;;
14007;SDS011;61651;45.508;12.232;2023-02-11T16:22:43;26.10;;;19.23;;
14007;SDS011;61651;45.508;12.232;2023-02-11T16:25:47;22.00;;;18.80;;
14007;SDS011;61651;45.508;12.232;2023-02-11T16:29:01;22.93;;;18.77;;
14007;SDS011;61651;45.508;12.232;2023-02-11T16:32:14;23.43;;;18.67;;
14007;SDS011;61651;45.508;12.232;2023-02-11T16:35:19;25.30;;;19.63;;
14007;SDS011;61651;45.508;12.232;2023-02-11T16:38:21;25.47;;;20.60;;
14007;SDS011;61651;45.508;12.232;2023-02-11T16:41:23;29.47;;;21.17;;
14007;SDS011;61651;45.508;12.232;2023-02-11T16:44:25;30.03;;;22.07;;
14007;SDS011;61651;45.508;12.232;2023-02-11T16:47:28;29.03;;;21.60;;
14007;SDS011;61651;45.508;12.232;2023-02-11T16:50:32;33.57;;;21.73;;
14007;SDS011;61651;45.508;12.232;2023-02-11T16:53:35;27.83;;;21.10;;
14007;SDS011;61651;45.508;12.232;2023-02-11T16:56:36;26.10;;;20.67;;
14007;SDS011;61651;45.508;12.232;2023-02-11T16:59:38;29.97;;;20.63;;
14007;SDS011;61651;45.508;12.232;2023-02-11T17:02:40;29.47;;;21.37;;
14007;SDS011;61651;45.508;12.232;2023-02-11T17:05:45;26.90;;;20.23;;
14007;SDS011;61651;45.508;12.232;2023-02-11T17:08:47;30.20;;;20.67;;
14007;SDS011;61651;45.508;12.232;2023-02-11T17:11:49;29.60;;;21.27;;
14007;SDS011;61651;45.508;12.232;2023-02-11T17:14:51;27.27;;;20.47;;
14007;SDS011;61651;45.508;12.232;2023-02-11T17:17:53;30.03;;;20.57;;
14007;SDS011;61651;45.508;12.232;2023-02-11T17:20:56;28.57;;;21.70;;
14007;SDS011;61651;45.508;12.232;2023-02-11T17:23:58;31.93;;;23.67;;
14007;SDS011;61651;45.508;12.232;2023-02-11T17:27:00;27.73;;;21.60;;
14007;SDS011;61651;45.508;12.232;2023-02-11T17:30:03;29.60;;;20.20;;
14007;SDS011;61651;45.508;12.232;2023-02-11T17:33:05;30.80;;;22.20;;
14007;SDS011;61651;45.508;12.232;2023-02-11T17:36:10;31.73;;;23.90;;
14007;SDS011;61651;45.508;12.232;2023-02-11T17:39:12;32.03;;;23.47;;
14007;SDS011;61651;45.508;12.232;2023-02-11T17:42:14;35.97;;;25.97;;
14007;SDS011;61651;45.508;12.232;2023-02-11T17:45:16;42.10;;;26.87;;
14007;SDS011;61651;45.508;12.232;2023-02-11T17:48:18;37.17;;;27.93;;
14007;SDS011;61651;45.508;12.232;2023-02-11T17:51:22;43.07;;;29.27;;
14007;SDS011;61651;45.508;12.232;2023-02-11T17:54:25;47.17;;;33.90;;
14007;SDS011;61651;45.508;12.232;2023-02-11T17:57:27;42.03;;;31.00;;
14007;SDS011;61651;45.508;12.232;2023-02-11T18:00:29;39.50;;;28.30;;
14007;SDS011;61651;45.508;12.232;2023-02-11T18:03:31;39.60;;;26.87;;
14007;SDS011;61651;45.508;12.232;2023-02-11T18:06:35;39.07;;;26.00;;
14007;SDS011;61651;45.508;12.232;2023-02-11T18:09:37;46.57;;;30.63;;
14007;SDS011;61651;45.508;12.232;2023-02-11T18:12:39;50.73;;;35.50;;
14007;SDS011;61651;45.508;12.232;2023-02-11T18:15:41;46.53;;;31.07;;